MSC Divina — 3FFA5 — position and weather

sailwx.info

Track history (hours):
 
Tides and Currents Weather Stations Pressure Air Temp Water Temp Dewpoint Dewpoint Depression Visibility Wind Speed Wind Dir Waves Ship Positions

MSC Divina

Last reported at 2016-Sep-18 02:33 UTC. Time now 2016-Oct-01 17:13 UTC.
Position N 25°46' W 080°06'.
Warning: this ship's position is 13 days out of date.

Length 333 m; draft 8.6 m.

Type: Passenger vessel. MMSI: 373178000.

Date/timePositionNaut miles runAvg speedWind from/ knotsBaromVisibWave heightAir tempDewpointWater temp
2016-Sep-18 02:33N 25°46' W 080°06'4 4.4
2016-Sep-18 01:33N 25°47' W 080°10'0 0.0
2016-Sep-18 00:33N 25°47' W 080°10'0 0.0
2016-Sep-17 22:33N 25°47' W 080°10'0 0.0
2016-Sep-17 21:33N 25°47' W 080°10'0 0.0
2016-Sep-17 20:33N 25°47' W 080°10'0 0.0
2016-Sep-17 19:16N 25°47' W 080°10'0 0.0
2016-Sep-17 13:31N 25°47' W 080°10'0 0.0
2016-Sep-17 12:31N 25°47' W 080°10'0 0.0
2016-Sep-17 10:28N 25°47' W 080°10'0 0.3
2016-Sep-17 09:34N 25°47' W 080°11'7 6.6
2016-Sep-17 08:34N 25°47' W 080°03'1514.7
2016-Sep-17 07:34N 25°53' W 079°49'3416.7
2016-Sep-17 05:32N 26°09' W 079°15'  
2016-Sep-14 17:33N 18°28' W 066°07'0 0.0
2016-Sep-14 16:26N 18°28' W 066°07'0 0.0
2016-Sep-14 13:33N 18°28' W 066°07'0 0.0
2016-Sep-14 12:33N 18°28' W 066°07'8 3.8
2016-Sep-14 10:34N 18°34' W 066°02'6215.4
2016-Sep-14 06:33N 18°13' W 065°01'10913.7
2016-Sep-13 22:33N 18°00' W 063°07'12 1.1
2016-Sep-13 11:33N 18°06' W 063°18'4518.6
2016-Sep-13 09:07N 18°34' W 063°55'  
2016-Sep-11 01:33N 26°07' W 079°26'2120.9
2016-Sep-11 00:33N 25°56' W 079°46'2019.6
2016-Sep-10 23:33N 25°46' W 080°05'5 5.1
2016-Sep-10 22:32N 25°47' W 080°10'0 0.0
2016-Sep-10 21:32N 25°47' W 080°10'0 0.0
2016-Sep-10 20:32N 25°47' W 080°10'0 0.0
2016-Sep-10 19:32N 25°47' W 080°10'0 0.0
2016-Sep-10 18:32N 25°47' W 080°10'0 0.0
2016-Sep-10 17:31N 25°47' W 080°10'0 0.0
2016-Sep-10 16:31N 25°47' W 080°10'0 0.0
2016-Sep-10 15:34N 25°47' W 080°10'0 0.0
2016-Sep-10 14:34N 25°47' W 080°10'0 0.0
2016-Sep-10 13:31N 25°47' W 080°10'0 0.0
2016-Sep-10 12:33N 25°47' W 080°10'0 0.0
2016-Sep-10 11:33N 25°47' W 080°10'0 0.0
2016-Sep-10 10:33N 25°47' W 080°10'0 0.4
2016-Sep-10 09:33N 25°47' W 080°11'7 7.0
2016-Sep-10 08:33N 25°46' W 080°03'1313.3
2016-Sep-10 07:33N 25°52' W 079°50'1515.1
2016-Sep-10 06:33N 25°59' W 079°35'1616.3
2016-Sep-10 05:33N 26°07' W 079°19'5 0.2
2016-Sep-09 06:24N 26°08' W 079°14'1618.2
2016-Sep-09 05:30N 25°53' W 079°20'  
Track history (hours):
 
Tides and Currents Weather Stations Pressure Air Temp Water Temp Dewpoint Dewpoint Depression Visibility Wind Speed Wind Dir Waves Ship Positions

MSC Divina

Last reported at 2016-Sep-18 02:33 UTC. Time now 2016-Oct-01 17:13 UTC.
Position N 25°46' W 080°06'.
Warning: this ship's position is 13 days out of date.

Length 333 m; draft 8.6 m.

Type: Passenger vessel. MMSI: 373178000.

Date/timePositionNaut miles runAvg speedWind from/ knotsBaromVisibWave heightAir tempDewpointWater temp
2016-Sep-18 02:33N 25°46' W 080°06'4 4.4
2016-Sep-18 01:33N 25°47' W 080°10'0 0.0
2016-Sep-18 00:33N 25°47' W 080°10'0 0.0
2016-Sep-17 22:33N 25°47' W 080°10'0 0.0
2016-Sep-17 21:33N 25°47' W 080°10'0 0.0
2016-Sep-17 20:33N 25°47' W 080°10'0 0.0
2016-Sep-17 19:16N 25°47' W 080°10'0 0.0
2016-Sep-17 13:31N 25°47' W 080°10'0 0.0
2016-Sep-17 12:31N 25°47' W 080°10'0 0.0
2016-Sep-17 10:28N 25°47' W 080°10'0 0.3
2016-Sep-17 09:34N 25°47' W 080°11'7 6.6
2016-Sep-17 08:34N 25°47' W 080°03'1514.7
2016-Sep-17 07:34N 25°53' W 079°49'3416.7
2016-Sep-17 05:32N 26°09' W 079°15'  
2016-Sep-14 17:33N 18°28' W 066°07'0 0.0
2016-Sep-14 16:26N 18°28' W 066°07'0 0.0
2016-Sep-14 13:33N 18°28' W 066°07'0 0.0
2016-Sep-14 12:33N 18°28' W 066°07'8 3.8
2016-Sep-14 10:34N 18°34' W 066°02'6215.4
2016-Sep-14 06:33N 18°13' W 065°01'10913.7
2016-Sep-13 22:33N 18°00' W 063°07'12 1.1
2016-Sep-13 11:33N 18°06' W 063°18'4518.6
2016-Sep-13 09:07N 18°34' W 063°55'  
2016-Sep-11 01:33N 26°07' W 079°26'2120.9
2016-Sep-11 00:33N 25°56' W 079°46'2019.6
2016-Sep-10 23:33N 25°46' W 080°05'5 5.1
2016-Sep-10 22:32N 25°47' W 080°10'0 0.0
2016-Sep-10 21:32N 25°47' W 080°10'0 0.0
2016-Sep-10 20:32N 25°47' W 080°10'0 0.0
2016-Sep-10 19:32N 25°47' W 080°10'0 0.0
2016-Sep-10 18:32N 25°47' W 080°10'0 0.0
2016-Sep-10 17:31N 25°47' W 080°10'0 0.0
2016-Sep-10 16:31N 25°47' W 080°10'0 0.0
2016-Sep-10 15:34N 25°47' W 080°10'0 0.0
2016-Sep-10 14:34N 25°47' W 080°10'0 0.0
2016-Sep-10 13:31N 25°47' W 080°10'0 0.0
2016-Sep-10 12:33N 25°47' W 080°10'0 0.0
2016-Sep-10 11:33N 25°47' W 080°10'0 0.0
2016-Sep-10 10:33N 25°47' W 080°10'0 0.4
2016-Sep-10 09:33N 25°47' W 080°11'7 7.0
2016-Sep-10 08:33N 25°46' W 080°03'1313.3
2016-Sep-10 07:33N 25°52' W 079°50'1515.1
2016-Sep-10 06:33N 25°59' W 079°35'1616.3
2016-Sep-10 05:33N 26°07' W 079°19'5 0.2
2016-Sep-09 06:24N 26°08' W 079°14'1618.2
2016-Sep-09 05:30N 25°53' W 079°20'  

Dump ship's entire track history